Airfield :
LOGIN :

Register | Disclaimer

   EN    FR    IT 

 










Legend :    VFR   Marginal VFR   IFR   Intensive IFR   Very Intensive IFR
Visi :
Ceiling :
>= 8 km
>= 3000ft
5 to 8 km
1000 to 3000 ft
1500m to 5 km
500 to 1000 ft
800 to 1500m
200 to 500 ft
< 800m
< 200 ft
Symbols :   Thunderstorms  Fog  Heavy snow  Heavy precipitations  Wind > 20 kt
SIGMETs :     Misc.  Thunderstorms  Icing  Turbulence  Mountain Waves  Volcanic Ashes







- Airport Elevation : 24 ft
- IATA code : FAO


LPFR - Faro

CURRENT METAR :
  • 231930Z 31008KT 9999 FEW018 10/04 Q1015

EXPIRED METARs :
  • 231900Z 30010KT 9999 FEW018 10/04 Q1015
  • 231830Z 31010KT 9999 FEW018 SCT040 10/05 Q1014
  • 231800Z 31017G28KT 280V340 9999 FEW018 FEW025CB SCT035 11/04 Q1014
  • 231730Z 28017KT 9999 FEW018 FEW025CB 13/06 Q1014
  • 231700Z 28017KT 9999 FEW018 12/06 Q1014

TAF TAF LPFR
Valid from the 23 at 18:00 until the 24 at 18:00 UTC


231700Z 2318/2418 27015KT 9999 SCT030
BECMG 2318/2320 31010KT
PROB40
TEMPO 2318/2418 8000 SHRA BKN018 FEW020CB
BECMG 2409/2412 24010KT
No reported NOTAMs for that airfield.
1 SIGMET reported for the Lisboa FIR (LPPC) :
 
Embedded thunderstorms
LPPC SIGMET 1 VALID 231945/232115 LPPT
LPPC LISBON FIR EMBD TS FCST WI N4020 W01000 - N4150 W01000 - N4145 W00920 - N4020 W00920 - N4020 W01000 TOP ABV FL250 MOV SE NC=



MET'MAP, your aeronautical weather chart ! - Copyright ORBIFLY December 2007 - Disclaimer

ORBIFLY MET'MAP TEAM :

Programming & Development : Alexandra Zaïnal
Concept & Development : Baudouin d'Aumeries
Co-Development & Prog : Marc-Olivier Méhu
Technical & hardware support : Manuel Goepfert

Contact : metmap@orbifly.com




SOURCES & CREDITS :

   NOAA